Ana Sayfa
METAR-TAF:

METAR-TAF

Havaalanları :

Yangon, Birmanya

Enlem: 16-46N, Boylam: 096-10E, yükseklik: 14 m

Güncel hava durumu gözlemi

Rapor saat 10:00 UTC de 24 dakika önce yapıldı.
Rüzgar batıdan 6 kt
Sıcaklık 35°C
Nem 39%
Basınç 1008 hPa
Görüş mesafesi: 7000 m

METAR: VYYY 281000Z 27006KT 7000 NSC 35/19 Q1008 NOSIG

Saat: 16:54 (10:24 UTC)

Tahmin

Rapor saat 05:00 UTC de 5 saat ve 24 dakika önce yapıldı.
Ayın 28'si saat 06 UTC'den ayın 29'si saat 06 UTC'ye kadar geçerli Tahmin
Rüzgar kuzeybatıdan 7 kt
Görüş mesafesi: 8000 m
2000 ft yükseklikte az bulutlu
20000 ft yükseklikte parçalı bulutlu
Dönüşüyor
ayın 28'si saat 10 UTC'den ayın 28'si saat 12 UTC'ye kadar
Görüş mesafesi: 6000 m
Toz Pusu
Dönüşüyor
ayın 29'si saat 00 UTC'den ayın 29'si saat 02 UTC'ye kadar
Görüş mesafesi: 3000 m
Pus

TAF: VYYY 280500Z 2806/2906 32007KT 8000 FEW020 SCT200 BECMG 2810/2812 6000 HZ BECMG 2900/2902 3000 BR

4.000'den fazla havaalanı için hava durumu gözlemleri ve tahminleri (METAR ve TAF raporları).

Kullanılabilir istasyonlar harita üzerinde sarı ve kırmızı noktalarla gösterilir.

İstasyonun adını görmek için fareyi noktanın üzerinde gezdirin.

Sonrasında hava gözlem ve tahminlerini görmek için tıklayın.

Haritayı değiştirmek için: yaklaştırmak için siyah artı işaretli yeşil düğmeye ve uzaklaştırmak için de eksi işaretli düğmeye hızla tıklayın; bitişik haritalar için yeşil okları kullanın.


METAR-TAF: